createdAt,value
2022-07-25T00:01:25.389Z,100331.22
2022-07-25T00:03:56.757Z,100336.47
2022-07-25T00:06:23.957Z,100326.03
2022-07-25T00:08:50.993Z,100322.22
2022-07-25T00:11:17.598Z,100321.63
2022-07-25T00:13:44.875Z,100318.41
2022-07-25T00:16:11.550Z,100316.75
2022-07-25T00:18:38.136Z,100314.88
2022-07-25T00:21:05.212Z,100303.59
2022-07-25T00:23:31.948Z,100311.09
2022-07-25T00:25:59.336Z,100303.94
2022-07-25T00:28:25.860Z,100302.53
2022-07-25T00:30:52.501Z,100302.91
2022-07-25T00:33:19.070Z,100301.84
2022-07-25T00:35:45.725Z,100298.97
2022-07-25T00:38:12.546Z,100307.28
2022-07-25T00:40:39.295Z,100309.28
2022-07-25T00:43:06.636Z,100299.81
2022-07-25T00:45:33.494Z,100296.59
2022-07-25T00:48:00.431Z,100283.19
2022-07-25T00:50:26.997Z,100290.19
2022-07-25T00:52:54.276Z,100297.78
2022-07-25T00:55:21.443Z,100292.22
2022-07-25T00:57:48.003Z,100288.53
2022-07-25T01:00:16.426Z,100293.88
2022-07-25T01:02:43.493Z,100296.34
2022-07-25T01:05:12.055Z,100292.59
2022-07-25T01:07:39.290Z,100287.84
2022-07-25T01:10:07.205Z,100297.09
2022-07-25T01:12:51.417Z,100284.06
2022-07-25T01:15:19.543Z,100288.19
2022-07-25T01:17:46.822Z,100282.25
2022-07-25T01:20:24.387Z,100281.44
2022-07-25T01:22:51.947Z,100283.84
2022-07-25T01:25:19.541Z,100268.84
2022-07-25T01:27:52.752Z,100269.59
2022-07-25T01:30:22.353Z,100265.03
2022-07-25T01:32:48.936Z,100260.88
2022-07-25T01:35:15.533Z,100270.63
2022-07-25T01:37:42.193Z,100257.72
2022-07-25T01:40:14.497Z,100263.41
2022-07-25T01:42:41.903Z,100252.72
2022-07-25T01:45:09.089Z,100255.44
2022-07-25T01:47:35.637Z,100256.41
2022-07-25T01:50:02.208Z,100255.78
2022-07-25T01:52:29.240Z,100252.94
2022-07-25T01:54:56.007Z,100252.66
2022-07-25T01:57:31.131Z,100245.25
2022-07-25T01:59:59.483Z,100246.72
2022-07-25T02:02:26.807Z,100234.38
2022-07-25T02:04:53.477Z,100238.53
2022-07-25T02:07:20.521Z,100240.19
2022-07-25T02:09:47.074Z,100239.44
2022-07-25T02:12:13.875Z,100233.22
2022-07-25T02:14:41.137Z,100234.75
2022-07-25T02:17:09.585Z,100225.81
2022-07-25T02:19:36.682Z,100226.91
2022-07-25T02:22:03.561Z,100231.53
2022-07-25T02:24:30.129Z,100232.94
2022-07-25T02:26:56.883Z,100223.22
2022-07-25T02:29:23.898Z,100226.69
2022-07-25T02:31:51.908Z,100219.09
2022-07-25T02:34:18.854Z,100215.88
2022-07-25T02:36:45.840Z,100215.88
2022-07-25T02:39:12.631Z,100215.63
2022-07-25T02:41:39.946Z,100208.97
2022-07-25T02:44:07.090Z,100208.97
2022-07-25T02:46:34.031Z,100213.94
2022-07-25T02:49:00.734Z,100208.13
2022-07-25T02:51:27.349Z,100201.31
2022-07-25T02:53:57.650Z,100194.84
2022-07-25T02:56:24.598Z,100194.84
2022-07-25T02:58:51.139Z,100184.41
2022-07-25T03:01:17.743Z,100186.25
2022-07-25T03:03:45.155Z,100187.16
2022-07-25T03:06:11.718Z,100186.94
2022-07-25T03:08:38.499Z,100184.25
2022-07-25T03:11:05.998Z,100176.88
2022-07-25T03:13:33.229Z,100178.22
2022-07-25T03:16:00.188Z,100170.75
2022-07-25T03:18:26.722Z,100174.81
2022-07-25T03:20:53.597Z,100175.72
2022-07-25T03:23:20.152Z,100168.13
2022-07-25T03:25:46.769Z,100169.09
2022-07-25T03:28:13.345Z,100170.97
2022-07-25T03:30:40.495Z,100165.69
2022-07-25T03:33:07.077Z,100159.78
2022-07-25T03:35:33.631Z,100157.84
2022-07-25T03:38:01.983Z,100156.53
2022-07-25T03:40:28.947Z,100154.06
2022-07-25T03:42:55.512Z,100139.53
2022-07-25T03:45:22.145Z,100147.41
2022-07-25T03:47:48.866Z,100140.16
2022-07-25T03:50:16.497Z,100137.59
2022-07-25T03:52:43.103Z,100130.94
2022-07-25T03:55:11.155Z,100127.19
2022-07-25T03:57:38.537Z,100127.25
2022-07-25T04:00:07.249Z,100122.97
2022-07-25T04:02:33.959Z,100119.63
2022-07-25T04:05:01.844Z,100113.72
2022-07-25T04:07:28.721Z,100117.66
2022-07-25T04:09:55.282Z,100111.03
2022-07-25T04:12:21.830Z,100102.78
2022-07-25T04:14:48.977Z,100100.22
2022-07-25T04:17:15.589Z,100094.38
2022-07-25T04:19:42.251Z,100095.53
2022-07-25T04:22:09.131Z,100097.03
2022-07-25T04:24:35.837Z,100096.75
2022-07-25T04:27:02.714Z,100095.56
2022-07-25T04:29:29.410Z,100092.91
2022-07-25T04:31:56.134Z,100086.31
2022-07-25T04:34:22.705Z,100084.28
2022-07-25T04:36:49.330Z,100083.59
2022-07-25T04:39:15.920Z,100072.09
2022-07-25T04:41:42.465Z,100072.69
2022-07-25T04:44:09.541Z,100066.34
2022-07-25T04:46:36.745Z,100065.53
2022-07-25T04:49:03.512Z,100064.19
2022-07-25T04:51:30.110Z,100069.41
2022-07-25T04:53:56.649Z,100058.69
2022-07-25T04:56:23.222Z,100053.13
2022-07-25T04:58:49.848Z,100047.94
2022-07-25T05:01:16.704Z,100047.59
2022-07-25T05:03:49.822Z,100042.47
2022-07-25T05:06:17.729Z,100039.03
2022-07-25T05:08:44.917Z,100029.78
2022-07-25T05:11:11.521Z,100037.47
2022-07-25T05:13:38.075Z,100030.00
2022-07-25T05:16:05.251Z,100029.44
2022-07-25T05:18:34.113Z,100027.28
2022-07-25T05:21:00.995Z,100026.53
2022-07-25T05:23:27.646Z,100033.16
2022-07-25T05:25:54.223Z,100026.38
2022-07-25T05:28:20.784Z,100027.97
2022-07-25T05:30:47.332Z,100027.09
2022-07-25T05:33:15.243Z,100028.50
2022-07-25T05:35:41.908Z,100022.75
2022-07-25T05:38:08.970Z,100039.78
2022-07-25T05:40:35.545Z,100038.47
2022-07-25T05:43:03.725Z,100029.31
2022-07-25T05:45:30.957Z,100029.56
2022-07-25T05:47:57.517Z,100033.75
2022-07-25T05:50:24.380Z,100031.94
2022-07-25T05:52:51.177Z,100036.28
2022-07-25T05:55:17.932Z,100032.25
2022-07-25T05:57:44.708Z,100025.72
2022-07-25T06:00:12.286Z,100020.88
2022-07-25T06:02:39.101Z,100001.72
2022-07-25T06:05:05.951Z,99999.34
2022-07-25T06:07:32.947Z,100000.50
2022-07-25T06:09:59.541Z,99999.25
2022-07-25T06:12:26.135Z,99996.22
2022-07-25T06:14:52.973Z,100000.31
2022-07-25T06:17:20.575Z,100003.50
2022-07-25T06:19:47.234Z,99987.53
2022-07-25T06:22:14.433Z,99986.72
2022-07-25T06:24:41.655Z,99993.00
2022-07-25T06:27:08.639Z,99982.84
2022-07-25T06:29:35.194Z,99980.69
2022-07-25T06:32:01.894Z,99985.59
2022-07-25T06:34:29.085Z,99990.84
2022-07-25T06:36:57.647Z,99991.47
2022-07-25T06:39:25.773Z,99984.28
2022-07-25T06:41:52.714Z,99982.19
2022-07-25T06:44:19.318Z,99979.63
2022-07-25T06:46:46.033Z,99981.66
2022-07-25T06:49:13.018Z,99982.72
2022-07-25T06:51:39.766Z,99982.66
2022-07-25T06:54:06.589Z,99973.25
2022-07-25T06:56:34.109Z,99973.78
2022-07-25T06:59:00.798Z,99970.88
2022-07-25T07:01:28.021Z,99966.88
2022-07-25T07:03:54.857Z,99961.69
2022-07-25T07:06:21.501Z,99961.47
2022-07-25T07:08:48.126Z,99965.16
2022-07-25T07:11:15.320Z,99960.88
2022-07-25T07:13:41.976Z,99978.53
2022-07-25T07:16:08.804Z,99970.59
2022-07-25T07:18:35.496Z,99975.25
2022-07-25T07:21:02.250Z,99967.81
2022-07-25T07:23:29.096Z,99979.84
2022-07-25T07:25:56.318Z,99967.06
2022-07-25T07:28:23.571Z,99968.69
2022-07-25T07:33:37.647Z,99958.00
2022-07-25T07:36:04.405Z,99958.13
2022-07-25T07:38:30.963Z,99959.50
2022-07-25T07:40:57.514Z,99968.03
2022-07-25T07:43:29.674Z,99964.97
2022-07-25T07:46:00.570Z,99957.25
2022-07-25T07:48:28.314Z,99961.41
2022-07-25T07:50:54.974Z,99954.50
2022-07-25T07:53:21.883Z,99957.38
2022-07-25T07:55:54.975Z,99943.25
2022-07-25T07:58:21.767Z,99948.69
2022-07-25T08:00:49.588Z,99953.84
2022-07-25T08:03:21.015Z,99950.59
2022-07-25T08:05:48.807Z,99949.81
2022-07-25T08:08:16.281Z,99944.53
2022-07-25T08:10:45.720Z,99940.56
2022-07-25T08:13:17.502Z,99941.56
2022-07-25T08:15:46.517Z,99929.28
2022-07-25T08:18:17.654Z,99928.41
2022-07-25T08:20:48.723Z,99939.19
2022-07-25T08:23:15.495Z,99931.22
2022-07-25T08:25:42.799Z,99927.28
2022-07-25T08:28:09.705Z,99915.13
2022-07-25T08:30:38.667Z,99915.75
2022-07-25T08:33:08.027Z,99914.16
2022-07-25T08:35:35.815Z,99905.75
2022-07-25T08:38:04.743Z,99904.25
2022-07-25T08:40:32.543Z,99901.38
2022-07-25T08:42:59.619Z,99898.13
2022-07-25T08:45:28.474Z,99896.16
2022-07-25T08:47:55.925Z,99905.28
2022-07-25T08:50:28.508Z,99885.75
2022-07-25T08:53:10.413Z,99889.63
2022-07-25T08:55:45.062Z,99887.06
2022-07-25T08:58:14.182Z,99895.16
2022-07-25T09:00:40.925Z,99882.56
2022-07-25T09:03:08.171Z,99880.78
2022-07-25T09:05:37.171Z,99880.03
2022-07-25T09:08:12.824Z,99879.41
2022-07-25T09:10:45.248Z,99877.97
2022-07-25T09:13:14.486Z,99882.72
2022-07-25T09:15:46.398Z,99863.81
2022-07-25T09:18:15.976Z,99865.88
2022-07-25T09:20:53.272Z,99867.97
2022-07-25T09:23:33.830Z,99866.22
2022-07-25T09:26:09.642Z,99861.94
2022-07-25T09:28:46.379Z,99867.91
2022-07-25T09:31:13.881Z,99853.13
2022-07-25T09:33:49.378Z,99851.72
2022-07-25T09:36:16.298Z,99846.78
2022-07-25T09:38:57.066Z,99845.09
2022-07-25T09:41:34.281Z,99845.84
2022-07-25T09:44:00.878Z,99849.56
2022-07-25T09:46:31.987Z,99843.31
2022-07-25T09:49:00.323Z,99855.72
2022-07-25T09:51:28.258Z,99850.03
2022-07-25T09:53:54.843Z,99840.53
2022-07-25T09:56:21.441Z,99842.88
2022-07-25T09:58:48.043Z,99832.72
2022-07-25T10:01:22.527Z,99838.69
2022-07-25T10:04:00.965Z,99845.31
2022-07-25T10:06:39.419Z,99844.50
2022-07-25T10:09:13.315Z,99836.91
2022-07-25T10:11:40.837Z,99839.59
2022-07-25T10:14:14.217Z,99825.53
2022-07-25T10:16:47.849Z,99834.50
2022-07-25T10:19:14.883Z,99827.13
2022-07-25T10:21:42.251Z,99821.09
2022-07-25T10:24:10.863Z,99822.16
2022-07-25T10:26:42.189Z,99820.69
2022-07-25T10:29:11.082Z,99810.16
2022-07-25T10:31:49.302Z,99811.59
2022-07-25T10:34:29.519Z,99812.53
2022-07-25T10:36:57.803Z,99812.91
2022-07-25T10:39:24.354Z,99807.88
2022-07-25T10:42:03.033Z,99814.59
2022-07-25T10:44:49.971Z,99812.50
2022-07-25T10:47:17.533Z,99818.13
2022-07-25T10:50:13.861Z,99819.28
2022-07-25T10:52:41.822Z,99810.56
2022-07-25T10:55:08.787Z,99809.56
2022-07-25T10:57:35.756Z,99803.38
2022-07-25T11:00:07.296Z,99812.88
2022-07-25T11:02:33.999Z,99803.03
2022-07-25T11:05:02.994Z,99808.63
2022-07-25T11:07:35.869Z,99801.41
2022-07-25T11:10:05.117Z,99803.75
2022-07-25T11:12:32.266Z,99801.41
2022-07-25T11:15:07.434Z,99800.41
2022-07-25T11:17:34.461Z,99801.13
2022-07-25T11:20:04.441Z,99805.88
2022-07-25T11:22:32.436Z,99805.00
2022-07-25T11:25:00.083Z,99789.69
2022-07-25T11:27:32.139Z,99784.59
2022-07-25T11:30:19.481Z,99780.66
2022-07-25T11:32:54.055Z,99772.97
2022-07-25T11:35:24.742Z,99769.63
2022-07-25T11:37:52.370Z,99762.16
2022-07-25T11:40:20.535Z,99757.75
2022-07-25T11:42:53.653Z,99763.19
2022-07-25T11:45:25.781Z,99771.94
2022-07-25T11:48:07.635Z,99776.66
2022-07-25T11:50:36.976Z,99768.03
2022-07-25T11:53:05.516Z,99767.22
2022-07-25T11:55:36.384Z,99784.19
2022-07-25T11:58:04.586Z,99773.34
2022-07-25T12:00:35.266Z,99773.44
2022-07-25T12:03:12.113Z,99784.69
2022-07-25T12:05:42.861Z,99776.81
2022-07-25T12:08:11.875Z,99778.94
2022-07-25T12:10:39.641Z,99768.50
2022-07-25T12:13:08.727Z,99769.09
2022-07-25T12:15:40.891Z,99762.13
2022-07-25T12:18:12.524Z,99770.66
2022-07-25T12:20:42.906Z,99769.72
2022-07-25T12:23:11.759Z,99780.22
2022-07-25T12:25:43.635Z,99773.44
2022-07-25T12:28:11.168Z,99769.47
2022-07-25T12:30:39.423Z,99762.63
2022-07-25T12:33:06.520Z,99767.75
2022-07-25T12:35:34.799Z,99771.50
2022-07-25T12:38:01.343Z,99762.31
2022-07-25T12:40:27.990Z,99760.22
2022-07-25T12:42:54.655Z,99765.94
2022-07-25T12:45:21.672Z,99767.16
2022-07-25T12:47:48.750Z,99757.09
2022-07-25T12:50:17.890Z,99769.66
2022-07-25T12:52:45.566Z,99770.16
2022-07-25T12:55:18.512Z,99765.63
2022-07-25T12:57:46.298Z,99769.03
2022-07-25T13:00:15.375Z,99762.53
2022-07-25T13:02:42.541Z,99761.88
2022-07-25T13:05:09.425Z,99755.56
2022-07-25T13:07:36.150Z,99754.06
2022-07-25T13:10:03.736Z,99752.81
2022-07-25T13:12:30.711Z,99756.53
2022-07-25T13:14:57.607Z,99759.19
2022-07-25T13:17:27.524Z,99760.28
2022-07-25T13:19:55.451Z,99756.25
2022-07-25T13:22:22.065Z,99756.97
2022-07-25T13:24:48.594Z,99747.47
2022-07-25T13:27:18.181Z,99743.34
2022-07-25T13:29:44.886Z,99746.84
2022-07-25T13:32:12.035Z,99744.63
2022-07-25T13:34:39.216Z,99736.34
2022-07-25T13:37:05.988Z,99746.91
2022-07-25T13:39:33.598Z,99736.91
2022-07-25T13:42:00.173Z,99744.41
2022-07-25T13:44:26.721Z,99740.41
2022-07-25T13:46:53.335Z,99741.94
2022-07-25T13:49:20.392Z,99745.00
2022-07-25T13:51:47.532Z,99735.22
2022-07-25T13:54:14.586Z,99734.19
2022-07-25T13:56:42.335Z,99732.28
2022-07-25T13:59:09.624Z,99735.31
2022-07-25T14:01:36.790Z,99730.16
2022-07-25T14:04:03.399Z,99719.22
2022-07-25T14:06:30.003Z,99717.66
2022-07-25T14:08:56.772Z,99719.53
2022-07-25T14:11:27.337Z,99709.25
2022-07-25T14:13:57.390Z,99709.97
2022-07-25T14:16:24.535Z,99708.50
2022-07-25T14:18:51.515Z,99699.66
2022-07-25T14:21:18.324Z,99687.16
2022-07-25T14:23:44.919Z,99686.56
2022-07-25T14:26:11.491Z,99690.34
2022-07-25T14:28:38.078Z,99678.44
2022-07-25T14:31:04.783Z,99678.00
2022-07-25T14:33:31.440Z,99681.09
2022-07-25T14:35:59.492Z,99676.97
2022-07-25T14:38:26.133Z,99687.56
2022-07-25T14:40:52.718Z,99690.97
2022-07-25T14:43:19.255Z,99717.13
2022-07-25T14:45:45.919Z,99694.13
2022-07-25T14:48:12.519Z,99700.19
2022-07-25T14:50:39.499Z,99708.69
2022-07-25T14:53:06.121Z,99709.28
2022-07-25T14:55:34.708Z,99704.91
2022-07-25T14:58:03.625Z,99693.63
2022-07-25T15:00:30.694Z,99704.06
2022-07-25T15:02:57.904Z,99707.22
2022-07-25T15:05:24.457Z,99719.38
2022-07-25T15:07:51.386Z,99720.00
2022-07-25T15:10:17.943Z,99724.56
2022-07-25T15:12:44.578Z,99738.41
2022-07-25T15:15:11.515Z,99744.13
2022-07-25T15:17:39.399Z,99757.94
2022-07-25T15:20:06.614Z,99760.72
2022-07-25T15:22:33.243Z,99770.94
2022-07-25T15:25:37.213Z,99771.31
2022-07-25T15:27:46.761Z,99777.28
2022-07-25T15:30:13.415Z,99781.69
2022-07-25T15:32:40.250Z,99805.53
2022-07-25T15:35:07.648Z,99836.41
2022-07-25T15:37:34.521Z,99820.38
2022-07-25T15:40:01.574Z,99840.97
2022-07-25T15:42:29.529Z,99847.44
2022-07-25T15:45:22.199Z,99845.19
2022-07-25T15:47:47.507Z,99865.38
2022-07-25T15:50:20.741Z,99869.78
2022-07-25T15:52:47.629Z,99873.94
2022-07-25T15:55:14.678Z,99850.28
2022-07-25T15:57:41.318Z,99854.19
2022-07-25T16:00:09.439Z,99849.09
2022-07-25T16:02:36.015Z,99850.44
2022-07-25T16:05:04.038Z,99843.88
2022-07-25T16:07:30.868Z,99835.56
2022-07-25T16:09:57.478Z,99854.75
2022-07-25T16:12:28.343Z,99840.34
2022-07-25T16:14:55.467Z,99844.78
2022-07-25T16:17:22.321Z,99848.91
2022-07-25T16:19:48.896Z,99838.16
2022-07-25T16:22:15.504Z,99836.84
2022-07-25T16:24:42.338Z,99830.69
2022-07-25T16:27:09.900Z,99842.63
2022-07-25T16:29:37.890Z,99838.00
2022-07-25T16:32:05.821Z,99848.19
2022-07-25T16:34:33.335Z,99853.03
2022-07-25T16:37:01.329Z,99866.63
2022-07-25T16:39:28.692Z,99875.94
2022-07-25T16:41:55.343Z,99869.13
2022-07-25T16:44:23.731Z,99881.16
2022-07-25T16:46:50.840Z,99870.88
2022-07-25T16:49:17.682Z,99867.13
2022-07-25T16:51:45.293Z,99876.00
2022-07-25T16:54:12.262Z,99875.81
2022-07-25T16:56:39.990Z,99879.72
2022-07-25T16:59:07.717Z,99875.53
2022-07-25T17:01:37.855Z,99882.47
2022-07-25T17:04:04.807Z,99883.81
2022-07-25T17:06:31.501Z,99884.34
2022-07-25T17:08:58.565Z,99886.31
2022-07-25T17:11:25.148Z,99892.00
2022-07-25T17:13:51.718Z,99881.59
2022-07-25T17:16:19.043Z,99874.69
2022-07-25T17:18:45.987Z,99872.44
2022-07-25T17:21:15.134Z,99871.06
2022-07-25T17:23:41.670Z,99876.56
2022-07-25T17:26:08.633Z,99878.66
2022-07-25T17:28:35.998Z,99880.53
2022-07-25T17:31:02.835Z,99892.69
2022-07-25T17:33:29.478Z,99890.94
2022-07-25T17:35:56.570Z,99896.75
2022-07-25T17:38:26.916Z,99891.59
2022-07-25T17:40:55.369Z,99895.84
2022-07-25T17:43:21.932Z,99901.94
2022-07-25T17:45:48.611Z,99908.03
2022-07-25T17:48:15.781Z,99900.00
2022-07-25T17:50:42.462Z,99906.00
2022-07-25T17:53:09.033Z,99919.16
2022-07-25T17:55:39.064Z,99918.03
2022-07-25T17:58:06.124Z,99922.72
2022-07-25T18:00:32.733Z,99918.78
2022-07-25T18:02:59.895Z,99917.50
2022-07-25T18:05:26.733Z,99925.09
2022-07-25T18:07:53.904Z,99928.41
2022-07-25T18:10:23.956Z,99936.41
2022-07-25T18:12:50.769Z,99933.56
2022-07-25T18:15:17.536Z,99933.91
2022-07-25T18:17:45.758Z,99926.81
2022-07-25T18:20:14.952Z,99936.94
2022-07-25T18:22:41.786Z,99938.16
2022-07-25T18:25:11.376Z,99938.31
2022-07-25T18:27:42.656Z,99947.25
2022-07-25T18:30:10.587Z,99950.66
2022-07-25T18:32:37.707Z,99958.16
2022-07-25T18:35:05.026Z,99960.81
2022-07-25T18:37:31.778Z,99948.13
2022-07-25T18:39:58.302Z,99951.94
2022-07-25T18:42:29.769Z,99964.13
2022-07-25T18:44:57.226Z,99960.97
2022-07-25T18:47:26.428Z,99956.91
2022-07-25T18:49:59.207Z,99954.66
2022-07-25T18:52:25.856Z,99963.03
2022-07-25T18:54:52.426Z,99967.22
2022-07-25T18:57:19.055Z,99963.72
2022-07-25T18:59:45.911Z,99961.69
2022-07-25T19:02:12.573Z,99962.13
2022-07-25T19:04:39.181Z,99963.59
2022-07-25T19:07:05.775Z,99975.47
2022-07-25T19:09:32.366Z,99979.34
2022-07-25T19:11:58.963Z,99984.13
2022-07-25T19:14:27.693Z,99982.28
2022-07-25T19:16:54.756Z,99984.13
2022-07-25T19:19:21.416Z,99993.53
2022-07-25T19:21:48.853Z,100001.50
2022-07-25T19:24:15.850Z,100001.69
2022-07-25T19:26:42.987Z,100001.13
2022-07-25T19:29:16.356Z,100007.81
2022-07-25T19:31:43.158Z,100009.03
2022-07-25T19:34:11.060Z,100010.25
2022-07-25T19:36:38.164Z,100014.22
2022-07-25T19:39:06.086Z,100026.38
2022-07-25T19:41:33.707Z,100024.97
2022-07-25T19:44:00.577Z,100022.47
2022-07-25T19:46:31.039Z,100030.34
2022-07-25T19:48:58.082Z,100032.50
2022-07-25T19:51:24.706Z,100036.16
2022-07-25T19:53:51.315Z,100028.81
2022-07-25T19:56:18.808Z,100036.81
2022-07-25T19:58:45.662Z,100045.09
2022-07-25T20:01:13.052Z,100045.59
2022-07-25T20:03:40.494Z,100043.78
2022-07-25T20:06:08.445Z,100053.41
2022-07-25T20:08:36.527Z,100060.34
2022-07-25T20:11:04.104Z,100057.69
2022-07-25T20:13:30.783Z,100062.84
2022-07-25T20:15:58.527Z,100064.66
2022-07-25T20:18:25.208Z,100065.50
2022-07-25T20:20:51.806Z,100069.53
2022-07-25T20:23:18.735Z,100068.97
2022-07-25T20:25:45.303Z,100067.78
2022-07-25T20:28:11.909Z,100073.91
2022-07-25T20:30:38.709Z,100071.03
2022-07-25T20:33:09.431Z,100082.25
2022-07-25T20:35:36.953Z,100088.44
2022-07-25T20:38:09.042Z,100082.44
2022-07-25T20:40:36.225Z,100085.13
2022-07-25T20:43:05.018Z,100099.31
2022-07-25T20:45:31.570Z,100093.34
2022-07-25T20:47:58.142Z,100089.63
2022-07-25T20:50:24.803Z,100084.56
2022-07-25T20:52:51.732Z,100084.25
2022-07-25T20:55:18.733Z,100083.06
2022-07-25T20:57:50.341Z,100089.00
2022-07-25T21:00:17.354Z,100089.63
2022-07-25T21:02:44.914Z,100092.44
2022-07-25T21:05:11.674Z,100100.03
2022-07-25T21:07:38.369Z,100096.97
2022-07-25T21:10:05.217Z,100104.78
2022-07-25T21:12:32.974Z,100110.22
2022-07-25T21:15:01.497Z,100109.78
2022-07-25T21:17:28.348Z,100108.44
2022-07-25T21:19:54.924Z,100107.97
2022-07-25T21:22:21.677Z,100110.47
2022-07-25T21:24:51.105Z,100114.59
2022-07-25T21:27:17.962Z,100115.78
2022-07-25T21:29:44.659Z,100118.88
2022-07-25T21:32:13.686Z,100121.25
2022-07-25T21:34:41.562Z,100116.88
2022-07-25T21:37:08.304Z,100120.06
2022-07-25T21:39:34.872Z,100119.97
2022-07-25T21:42:01.529Z,100116.53
2022-07-25T21:44:28.987Z,100124.25
2022-07-25T21:46:55.870Z,100122.00
2022-07-25T21:49:42.695Z,100116.19
2022-07-25T21:52:13.617Z,100111.88
2022-07-25T21:54:44.903Z,100127.16
2022-07-25T21:57:13.668Z,100127.75
2022-07-25T21:59:45.028Z,100116.41
2022-07-25T22:02:12.432Z,100117.00
2022-07-25T22:04:39.731Z,100120.13
2022-07-25T22:07:06.398Z,100113.22
2022-07-25T22:09:34.294Z,100117.63
2022-07-25T22:12:01.019Z,100117.28
2022-07-25T22:14:27.904Z,100117.97
2022-07-25T22:16:54.576Z,100108.38
2022-07-25T22:19:22.617Z,100117.34
2022-07-25T22:21:49.857Z,100119.63
2022-07-25T22:24:17.238Z,100117.19
2022-07-25T22:26:43.910Z,100116.44
2022-07-25T22:29:11.313Z,100113.69
2022-07-25T22:31:39.078Z,100120.72
2022-07-25T22:34:06.109Z,100115.16
2022-07-25T22:36:32.704Z,100125.41
2022-07-25T22:38:59.292Z,100123.91
2022-07-25T22:41:25.827Z,100125.34
2022-07-25T22:43:58.906Z,100131.44
2022-07-25T22:46:31.787Z,100129.25
2022-07-25T22:48:59.415Z,100127.34
2022-07-25T22:51:27.601Z,100119.44
2022-07-25T22:53:54.835Z,100122.78
2022-07-25T22:56:21.863Z,100126.81
2022-07-25T22:58:48.947Z,100125.84
2022-07-25T23:01:17.541Z,100128.59
2022-07-25T23:03:44.669Z,100127.97
2022-07-25T23:06:11.731Z,100132.41
2022-07-25T23:08:38.331Z,100126.13
2022-07-25T23:11:06.339Z,100127.00
2022-07-25T23:13:34.723Z,100122.81
2022-07-25T23:16:01.914Z,100126.13
2022-07-25T23:18:31.069Z,100122.53
2022-07-25T23:20:57.847Z,100124.03
2022-07-25T23:23:24.854Z,100119.78
2022-07-25T23:25:51.778Z,100121.19
2022-07-25T23:28:18.823Z,100128.25
2022-07-25T23:30:45.573Z,100127.00
2022-07-25T23:33:12.174Z,100130.44
2022-07-25T23:35:38.891Z,100132.47
2022-07-25T23:38:05.433Z,100130.63
2022-07-25T23:40:32.706Z,100139.44
2022-07-25T23:42:59.308Z,100133.66
2022-07-25T23:45:28.057Z,100143.09
2022-07-25T23:47:56.753Z,100142.47
2022-07-25T23:50:24.386Z,100135.66
2022-07-25T23:52:51.571Z,100131.59
2022-07-25T23:55:19.288Z,100134.66
2022-07-25T23:57:46.403Z,100134.72
